sensor_id;sensor_type;location;lat;lon;timestamp;P1;durP1;ratioP1;P2;durP2;ratioP2
78057;SDS011;67265;52.514;13.292;2023-03-01T00:02:02;27.15;;;10.63;;
78057;SDS011;67265;52.514;13.292;2023-03-01T00:04:27;26.58;;;13.43;;
78057;SDS011;67265;52.514;13.292;2023-03-01T00:06:53;26.20;;;11.38;;
78057;SDS011;67265;52.514;13.292;2023-03-01T00:09:19;24.02;;;10.95;;
78057;SDS011;67265;52.514;13.292;2023-03-01T00:11:44;26.45;;;13.35;;
78057;SDS011;67265;52.514;13.292;2023-03-01T00:14:10;24.58;;;10.50;;
78057;SDS011;67265;52.514;13.292;2023-03-01T00:16:36;25.25;;;12.68;;
78057;SDS011;67265;52.514;13.292;2023-03-01T00:19:05;27.00;;;11.93;;
78057;SDS011;67265;52.514;13.292;2023-03-01T00:21:31;19.40;;;9.65;;
78057;SDS011;67265;52.514;13.292;2023-03-01T00:23:57;22.52;;;12.15;;
78057;SDS011;67265;52.514;13.292;2023-03-01T00:26:23;22.05;;;9.32;;
78057;SDS011;67265;52.514;13.292;2023-03-01T00:28:50;18.20;;;9.35;;
78057;SDS011;67265;52.514;13.292;2023-03-01T00:31:16;20.85;;;11.00;;
78057;SDS011;67265;52.514;13.292;2023-03-01T00:33:43;21.58;;;9.77;;
78057;SDS011;67265;52.514;13.292;2023-03-01T00:36:10;20.73;;;9.95;;
78057;SDS011;67265;52.514;13.292;2023-03-01T00:38:37;18.67;;;10.27;;
78057;SDS011;67265;52.514;13.292;2023-03-01T00:41:05;20.13;;;10.48;;
78057;SDS011;67265;52.514;13.292;2023-03-01T00:43:31;19.30;;;9.10;;
78057;SDS011;67265;52.514;13.292;2023-03-01T00:46:01;21.98;;;11.85;;
78057;SDS011;67265;52.514;13.292;2023-03-01T00:48:36;19.20;;;10.02;;
78057;SDS011;67265;52.514;13.292;2023-03-01T00:51:09;21.80;;;10.80;;
78057;SDS011;67265;52.514;13.292;2023-03-01T00:53:36;18.15;;;10.88;;
78057;SDS011;67265;52.514;13.292;2023-03-01T00:56:02;19.80;;;9.88;;
78057;SDS011;67265;52.514;13.292;2023-03-01T00:58:28;18.85;;;9.43;;
78057;SDS011;67265;52.514;13.292;2023-03-01T01:00:54;22.40;;;10.95;;
78057;SDS011;67265;52.514;13.292;2023-03-01T01:03:19;18.35;;;9.05;;
78057;SDS011;67265;52.514;13.292;2023-03-01T01:05:45;16.25;;;8.52;;
78057;SDS011;67265;52.514;13.292;2023-03-01T01:08:10;25.52;;;11.50;;
78057;SDS011;67265;52.514;13.292;2023-03-01T01:10:36;22.98;;;11.48;;
78057;SDS011;67265;52.514;13.292;2023-03-01T01:13:02;20.13;;;8.57;;
78057;SDS011;67265;52.514;13.292;2023-03-01T01:15:27;17.95;;;9.20;;
78057;SDS011;67265;52.514;13.292;2023-03-01T01:17:53;24.60;;;11.27;;
78057;SDS011;67265;52.514;13.292;2023-03-01T01:20:18;17.77;;;9.18;;
78057;SDS011;67265;52.514;13.292;2023-03-01T01:22:44;24.38;;;10.07;;
78057;SDS011;67265;52.514;13.292;2023-03-01T01:25:09;17.40;;;10.20;;
78057;SDS011;67265;52.514;13.292;2023-03-01T01:27:34;20.52;;;10.63;;
78057;SDS011;67265;52.514;13.292;2023-03-01T01:30:00;20.77;;;9.25;;
78057;SDS011;67265;52.514;13.292;2023-03-01T01:32:25;18.50;;;9.23;;
78057;SDS011;67265;52.514;13.292;2023-03-01T01:34:51;18.35;;;9.52;;
78057;SDS011;67265;52.514;13.292;2023-03-01T01:37:16;17.50;;;8.30;;
78057;SDS011;67265;52.514;13.292;2023-03-01T01:39:41;20.80;;;9.30;;
78057;SDS011;67265;52.514;13.292;2023-03-01T01:42:11;17.48;;;9.25;;
78057;SDS011;67265;52.514;13.292;2023-03-01T01:44:39;24.35;;;10.60;;
78057;SDS011;67265;52.514;13.292;2023-03-01T01:47:05;20.00;;;9.60;;
78057;SDS011;67265;52.514;13.292;2023-03-01T01:57:26;21.58;;;9.50;;
78057;SDS011;67265;52.514;13.292;2023-03-01T01:59:56;18.75;;;11.23;;
78057;SDS011;67265;52.514;13.292;2023-03-01T02:02:24;27.92;;;10.35;;
78057;SDS011;67265;52.514;13.292;2023-03-01T02:04:52;20.38;;;9.32;;
78057;SDS011;67265;52.514;13.292;2023-03-01T02:07:20;19.48;;;10.18;;
78057;SDS011;67265;52.514;13.292;2023-03-01T02:09:48;20.75;;;9.70;;
78057;SDS011;67265;52.514;13.292;2023-03-01T02:12:15;17.80;;;9.55;;
78057;SDS011;67265;52.514;13.292;2023-03-01T02:14:42;21.50;;;9.07;;
78057;SDS011;67265;52.514;13.292;2023-03-01T02:17:08;21.85;;;9.23;;
78057;SDS011;67265;52.514;13.292;2023-03-01T02:22:28;19.92;;;9.38;;
78057;SDS011;67265;52.514;13.292;2023-03-01T02:27:33;21.98;;;9.20;;
78057;SDS011;67265;52.514;13.292;2023-03-01T02:30:03;17.23;;;8.15;;
78057;SDS011;67265;52.514;13.292;2023-03-01T02:32:29;18.88;;;10.13;;
78057;SDS011;67265;52.514;13.292;2023-03-01T02:34:55;17.67;;;9.68;;
78057;SDS011;67265;52.514;13.292;2023-03-01T02:37:20;16.80;;;8.02;;
78057;SDS011;67265;52.514;13.292;2023-03-01T02:39:50;18.58;;;7.97;;
78057;SDS011;67265;52.514;13.292;2023-03-01T02:42:23;21.10;;;8.73;;
78057;SDS011;67265;52.514;13.292;2023-03-01T02:44:52;16.92;;;9.00;;
78057;SDS011;67265;52.514;13.292;2023-03-01T02:47:18;18.13;;;8.38;;
78057;SDS011;67265;52.514;13.292;2023-03-01T02:49:44;19.00;;;8.48;;
78057;SDS011;67265;52.514;13.292;2023-03-01T02:54:42;16.23;;;7.88;;
78057;SDS011;67265;52.514;13.292;2023-03-01T02:57:18;21.38;;;10.80;;
78057;SDS011;67265;52.514;13.292;2023-03-01T02:59:44;19.42;;;10.40;;
78057;SDS011;67265;52.514;13.292;2023-03-01T03:02:20;17.75;;;9.18;;
78057;SDS011;67265;52.514;13.292;2023-03-01T03:07:33;24.65;;;9.10;;
78057;SDS011;67265;52.514;13.292;2023-03-01T03:10:00;19.50;;;9.93;;
78057;SDS011;67265;52.514;13.292;2023-03-01T03:12:26;18.38;;;8.98;;
78057;SDS011;67265;52.514;13.292;2023-03-01T03:14:51;18.58;;;8.80;;
78057;SDS011;67265;52.514;13.292;2023-03-01T03:17:16;18.80;;;8.77;;
78057;SDS011;67265;52.514;13.292;2023-03-01T03:19:42;17.95;;;9.63;;
78057;SDS011;67265;52.514;13.292;2023-03-01T03:22:10;18.45;;;8.75;;
78057;SDS011;67265;52.514;13.292;2023-03-01T03:24:38;19.05;;;9.20;;
78057;SDS011;67265;52.514;13.292;2023-03-01T03:27:04;16.15;;;9.23;;
78057;SDS011;67265;52.514;13.292;2023-03-01T03:29:30;17.45;;;8.63;;
78057;SDS011;67265;52.514;13.292;2023-03-01T03:31:55;18.77;;;8.60;;
78057;SDS011;67265;52.514;13.292;2023-03-01T03:34:21;20.30;;;8.95;;
78057;SDS011;67265;52.514;13.292;2023-03-01T03:36:46;16.20;;;8.10;;
78057;SDS011;67265;52.514;13.292;2023-03-01T03:39:12;17.10;;;9.63;;
78057;SDS011;67265;52.514;13.292;2023-03-01T03:41:37;16.70;;;7.95;;
78057;SDS011;67265;52.514;13.292;2023-03-01T03:44:02;18.83;;;8.60;;
78057;SDS011;67265;52.514;13.292;2023-03-01T03:46:28;21.10;;;9.73;;
78057;SDS011;67265;52.514;13.292;2023-03-01T03:48:53;20.48;;;11.02;;
78057;SDS011;67265;52.514;13.292;2023-03-01T03:51:18;22.13;;;8.93;;
78057;SDS011;67265;52.514;13.292;2023-03-01T03:53:44;23.13;;;9.50;;
78057;SDS011;67265;52.514;13.292;2023-03-01T03:56:10;17.85;;;8.65;;
78057;SDS011;67265;52.514;13.292;2023-03-01T03:58:36;16.88;;;7.82;;
78057;SDS011;67265;52.514;13.292;2023-03-01T04:01:02;21.92;;;9.23;;
78057;SDS011;67265;52.514;13.292;2023-03-01T04:03:28;17.50;;;8.40;;
78057;SDS011;67265;52.514;13.292;2023-03-01T04:05:56;21.55;;;10.15;;
78057;SDS011;67265;52.514;13.292;2023-03-01T04:08:22;22.40;;;9.30;;
78057;SDS011;67265;52.514;13.292;2023-03-01T04:10:50;16.25;;;8.05;;
78057;SDS011;67265;52.514;13.292;2023-03-01T04:13:17;17.60;;;8.35;;
78057;SDS011;67265;52.514;13.292;2023-03-01T04:15:48;17.00;;;7.82;;
78057;SDS011;67265;52.514;13.292;2023-03-01T04:18:15;18.63;;;8.43;;
78057;SDS011;67265;52.514;13.292;2023-03-01T04:20:41;17.27;;;9.52;;
78057;SDS011;67265;52.514;13.292;2023-03-01T04:23:08;20.80;;;8.95;;
78057;SDS011;67265;52.514;13.292;2023-03-01T04:25:39;18.55;;;7.93;;
78057;SDS011;67265;52.514;13.292;2023-03-01T04:28:05;18.35;;;10.00;;
78057;SDS011;67265;52.514;13.292;2023-03-01T04:30:31;19.17;;;8.02;;
78057;SDS011;67265;52.514;13.292;2023-03-01T04:33:01;16.83;;;9.35;;
78057;SDS011;67265;52.514;13.292;2023-03-01T04:35:28;17.83;;;7.75;;
78057;SDS011;67265;52.514;13.292;2023-03-01T04:37:54;17.73;;;9.75;;
78057;SDS011;67265;52.514;13.292;2023-03-01T04:40:19;19.40;;;8.55;;
78057;SDS011;67265;52.514;13.292;2023-03-01T04:42:46;12.88;;;8.15;;
78057;SDS011;67265;52.514;13.292;2023-03-01T04:45:12;17.08;;;8.30;;
78057;SDS011;67265;52.514;13.292;2023-03-01T04:47:41;20.77;;;8.45;;
78057;SDS011;67265;52.514;13.292;2023-03-01T04:50:08;19.63;;;9.65;;
78057;SDS011;67265;52.514;13.292;2023-03-01T04:52:34;20.95;;;8.80;;
78057;SDS011;67265;52.514;13.292;2023-03-01T04:55:00;18.70;;;8.25;;
78057;SDS011;67265;52.514;13.292;2023-03-01T04:57:26;21.85;;;10.25;;
78057;SDS011;67265;52.514;13.292;2023-03-01T04:59:51;19.85;;;10.38;;
78057;SDS011;67265;52.514;13.292;2023-03-01T05:02:16;22.50;;;10.10;;
78057;SDS011;67265;52.514;13.292;2023-03-01T05:04:42;18.30;;;8.68;;
78057;SDS011;67265;52.514;13.292;2023-03-01T05:07:07;18.63;;;7.95;;
78057;SDS011;67265;52.514;13.292;2023-03-01T05:09:33;20.88;;;8.45;;
78057;SDS011;67265;52.514;13.292;2023-03-01T05:11:58;20.55;;;9.07;;
78057;SDS011;67265;52.514;13.292;2023-03-01T05:14:24;26.45;;;9.45;;
78057;SDS011;67265;52.514;13.292;2023-03-01T05:16:49;28.20;;;9.57;;
78057;SDS011;67265;52.514;13.292;2023-03-01T05:19:14;16.52;;;8.07;;
78057;SDS011;67265;52.514;13.292;2023-03-01T05:21:47;17.60;;;8.02;;
78057;SDS011;67265;52.514;13.292;2023-03-01T05:24:32;19.90;;;8.32;;
78057;SDS011;67265;52.514;13.292;2023-03-01T05:26:59;16.20;;;7.43;;
78057;SDS011;67265;52.514;13.292;2023-03-01T05:29:26;20.10;;;9.10;;
78057;SDS011;67265;52.514;13.292;2023-03-01T05:31:53;18.90;;;9.27;;
78057;SDS011;67265;52.514;13.292;2023-03-01T05:34:23;20.73;;;10.27;;
78057;SDS011;67265;52.514;13.292;2023-03-01T05:36:50;21.80;;;9.25;;
78057;SDS011;67265;52.514;13.292;2023-03-01T05:39:18;19.65;;;9.32;;
78057;SDS011;67265;52.514;13.292;2023-03-01T05:41:46;17.17;;;8.63;;
78057;SDS011;67265;52.514;13.292;2023-03-01T05:44:11;19.70;;;9.23;;
78057;SDS011;67265;52.514;13.292;2023-03-01T05:46:37;17.90;;;10.00;;
78057;SDS011;67265;52.514;13.292;2023-03-01T05:49:02;17.05;;;9.30;;
78057;SDS011;67265;52.514;13.292;2023-03-01T05:51:29;19.35;;;9.13;;
78057;SDS011;67265;52.514;13.292;2023-03-01T05:53:54;19.25;;;9.02;;
78057;SDS011;67265;52.514;13.292;2023-03-01T05:56:20;20.35;;;9.40;;
78057;SDS011;67265;52.514;13.292;2023-03-01T05:58:47;22.25;;;10.48;;
78057;SDS011;67265;52.514;13.292;2023-03-01T06:01:14;18.40;;;9.68;;
78057;SDS011;67265;52.514;13.292;2023-03-01T06:03:39;19.08;;;10.38;;
78057;SDS011;67265;52.514;13.292;2023-03-01T06:06:05;20.40;;;9.70;;
78057;SDS011;67265;52.514;13.292;2023-03-01T06:08:30;20.40;;;10.48;;
78057;SDS011;67265;52.514;13.292;2023-03-01T06:10:56;21.40;;;9.88;;
78057;SDS011;67265;52.514;13.292;2023-03-01T06:13:21;23.33;;;10.30;;
78057;SDS011;67265;52.514;13.292;2023-03-01T06:15:48;21.98;;;10.05;;
78057;SDS011;67265;52.514;13.292;2023-03-01T06:18:14;24.20;;;9.50;;
78057;SDS011;67265;52.514;13.292;2023-03-01T06:20:39;18.45;;;10.35;;
78057;SDS011;67265;52.514;13.292;2023-03-01T06:23:04;17.90;;;10.90;;
78057;SDS011;67265;52.514;13.292;2023-03-01T06:25:30;21.77;;;10.82;;
78057;SDS011;67265;52.514;13.292;2023-03-01T06:27:55;20.52;;;8.40;;
78057;SDS011;67265;52.514;13.292;2023-03-01T06:30:21;19.63;;;9.00;;
78057;SDS011;67265;52.514;13.292;2023-03-01T06:32:48;20.02;;;10.43;;
78057;SDS011;67265;52.514;13.292;2023-03-01T06:35:14;17.65;;;8.95;;
78057;SDS011;67265;52.514;13.292;2023-03-01T06:37:42;21.08;;;9.25;;
78057;SDS011;67265;52.514;13.292;2023-03-01T06:40:08;17.80;;;9.55;;
78057;SDS011;67265;52.514;13.292;2023-03-01T06:42:37;15.40;;;9.38;;
78057;SDS011;67265;52.514;13.292;2023-03-01T06:45:03;17.90;;;8.18;;
78057;SDS011;67265;52.514;13.292;2023-03-01T06:47:30;19.92;;;10.27;;
78057;SDS011;67265;52.514;13.292;2023-03-01T06:49:55;26.58;;;13.43;;
78057;SDS011;67265;52.514;13.292;2023-03-01T06:52:20;26.52;;;11.68;;
78057;SDS011;67265;52.514;13.292;2023-03-01T06:54:46;26.88;;;12.82;;
78057;SDS011;67265;52.514;13.292;2023-03-01T06:57:11;26.00;;;11.25;;
78057;SDS011;67265;52.514;13.292;2023-03-01T06:59:37;18.83;;;10.75;;
78057;SDS011;67265;52.514;13.292;2023-03-01T07:02:02;18.23;;;11.02;;
78057;SDS011;67265;52.514;13.292;2023-03-01T07:04:27;20.25;;;10.27;;
78057;SDS011;67265;52.514;13.292;2023-03-01T07:06:56;21.88;;;11.50;;
78057;SDS011;67265;52.514;13.292;2023-03-01T07:09:22;20.42;;;11.98;;
78057;SDS011;67265;52.514;13.292;2023-03-01T07:11:48;24.02;;;11.32;;
78057;SDS011;67265;52.514;13.292;2023-03-01T07:14:14;18.45;;;8.52;;
78057;SDS011;67265;52.514;13.292;2023-03-01T07:16:39;18.70;;;10.02;;
78057;SDS011;67265;52.514;13.292;2023-03-01T07:19:04;19.13;;;9.07;;
78057;SDS011;67265;52.514;13.292;2023-03-01T07:21:30;17.85;;;9.65;;
78057;SDS011;67265;52.514;13.292;2023-03-01T07:23:56;13.50;;;8.30;;
78057;SDS011;67265;52.514;13.292;2023-03-01T07:26:21;15.07;;;9.82;;
78057;SDS011;67265;52.514;13.292;2023-03-01T07:28:47;15.32;;;9.80;;
78057;SDS011;67265;52.514;13.292;2023-03-01T07:31:12;17.08;;;9.85;;
78057;SDS011;67265;52.514;13.292;2023-03-01T07:33:38;15.75;;;8.80;;
78057;SDS011;67265;52.514;13.292;2023-03-01T07:36:03;14.55;;;9.23;;
78057;SDS011;67265;52.514;13.292;2023-03-01T07:38:29;16.15;;;8.93;;
78057;SDS011;67265;52.514;13.292;2023-03-01T07:41:04;15.27;;;8.90;;
78057;SDS011;67265;52.514;13.292;2023-03-01T07:43:30;12.93;;;7.45;;
78057;SDS011;67265;52.514;13.292;2023-03-01T07:45:59;15.05;;;9.30;;
78057;SDS011;67265;52.514;13.292;2023-03-01T07:48:25;14.35;;;9.15;;
78057;SDS011;67265;52.514;13.292;2023-03-01T07:50:51;11.05;;;8.85;;
78057;SDS011;67265;52.514;13.292;2023-03-01T07:53:16;14.43;;;9.38;;
78057;SDS011;67265;52.514;13.292;2023-03-01T07:55:42;11.18;;;9.00;;
78057;SDS011;67265;52.514;13.292;2023-03-01T07:58:07;12.13;;;8.60;;
78057;SDS011;67265;52.514;13.292;2023-03-01T08:00:33;14.35;;;8.82;;
78057;SDS011;67265;52.514;13.292;2023-03-01T08:02:59;13.57;;;9.88;;
78057;SDS011;67265;52.514;13.292;2023-03-01T08:05:25;15.00;;;9.23;;
78057;SDS011;67265;52.514;13.292;2023-03-01T08:07:51;11.75;;;7.78;;
78057;SDS011;67265;52.514;13.292;2023-03-01T08:10:16;10.75;;;8.07;;
78057;SDS011;67265;52.514;13.292;2023-03-01T08:12:42;10.52;;;7.78;;
78057;SDS011;67265;52.514;13.292;2023-03-01T08:15:07;10.85;;;7.40;;
78057;SDS011;67265;52.514;13.292;2023-03-01T08:17:33;10.40;;;6.45;;
78057;SDS011;67265;52.514;13.292;2023-03-01T08:19:58;10.23;;;6.85;;
78057;SDS011;67265;52.514;13.292;2023-03-01T08:22:24;10.52;;;7.47;;
78057;SDS011;67265;52.514;13.292;2023-03-01T08:24:49;9.88;;;6.20;;
78057;SDS011;67265;52.514;13.292;2023-03-01T08:27:15;8.63;;;6.45;;
78057;SDS011;67265;52.514;13.292;2023-03-01T08:29:41;9.30;;;6.90;;
78057;SDS011;67265;52.514;13.292;2023-03-01T08:32:06;9.32;;;6.70;;
78057;SDS011;67265;52.514;13.292;2023-03-01T08:34:32;10.63;;;7.55;;
78057;SDS011;67265;52.514;13.292;2023-03-01T08:37:00;9.82;;;6.82;;
78057;SDS011;67265;52.514;13.292;2023-03-01T08:39:25;12.05;;;7.97;;
78057;SDS011;67265;52.514;13.292;2023-03-01T08:41:51;10.13;;;6.60;;
78057;SDS011;67265;52.514;13.292;2023-03-01T08:44:16;6.95;;;5.18;;
78057;SDS011;67265;52.514;13.292;2023-03-01T08:46:42;8.32;;;5.75;;
78057;SDS011;67265;52.514;13.292;2023-03-01T08:49:08;7.32;;;5.53;;
78057;SDS011;67265;52.514;13.292;2023-03-01T08:51:36;7.20;;;5.10;;
78057;SDS011;67265;52.514;13.292;2023-03-01T08:54:14;8.75;;;4.93;;
78057;SDS011;67265;52.514;13.292;2023-03-01T08:56:42;7.90;;;4.70;;
78057;SDS011;67265;52.514;13.292;2023-03-01T08:59:07;8.63;;;5.00;;
78057;SDS011;67265;52.514;13.292;2023-03-01T09:01:32;8.27;;;4.68;;
78057;SDS011;67265;52.514;13.292;2023-03-01T09:03:58;7.50;;;4.50;;
78057;SDS011;67265;52.514;13.292;2023-03-01T09:06:23;7.55;;;5.10;;
78057;SDS011;67265;52.514;13.292;2023-03-01T09:08:49;9.45;;;5.35;;
78057;SDS011;67265;52.514;13.292;2023-03-01T09:11:20;10.43;;;5.35;;
78057;SDS011;67265;52.514;13.292;2023-03-01T09:13:46;9.95;;;4.90;;
78057;SDS011;67265;52.514;13.292;2023-03-01T09:16:13;6.47;;;4.47;;
78057;SDS011;67265;52.514;13.292;2023-03-01T09:18:40;7.75;;;4.82;;
78057;SDS011;67265;52.514;13.292;2023-03-01T09:21:06;7.55;;;4.22;;
78057;SDS011;67265;52.514;13.292;2023-03-01T09:23:35;5.03;;;3.50;;
78057;SDS011;67265;52.514;13.292;2023-03-01T09:26:03;6.18;;;3.90;;
78057;SDS011;67265;52.514;13.292;2023-03-01T09:28:29;7.20;;;4.05;;
78057;SDS011;67265;52.514;13.292;2023-03-01T09:30:58;8.98;;;4.55;;
78057;SDS011;67265;52.514;13.292;2023-03-01T09:33:24;7.55;;;3.90;;
78057;SDS011;67265;52.514;13.292;2023-03-01T09:35:55;6.07;;;4.63;;
78057;SDS011;67265;52.514;13.292;2023-03-01T09:38:23;6.25;;;4.22;;
78057;SDS011;67265;52.514;13.292;2023-03-01T09:40:48;6.22;;;4.00;;
78057;SDS011;67265;52.514;13.292;2023-03-01T09:43:20;4.20;;;3.20;;
78057;SDS011;67265;52.514;13.292;2023-03-01T09:45:48;5.80;;;3.45;;
78057;SDS011;67265;52.514;13.292;2023-03-01T09:48:16;6.00;;;3.28;;
78057;SDS011;67265;52.514;13.292;2023-03-01T09:50:47;7.50;;;3.50;;
78057;SDS011;67265;52.514;13.292;2023-03-01T09:53:16;7.53;;;3.63;;
78057;SDS011;67265;52.514;13.292;2023-03-01T09:58:50;6.28;;;3.30;;
78057;SDS011;67265;52.514;13.292;2023-03-01T10:01:28;4.28;;;2.80;;
78057;SDS011;67265;52.514;13.292;2023-03-01T10:06:47;5.32;;;3.33;;
78057;SDS011;67265;52.514;13.292;2023-03-01T10:09:21;4.65;;;3.17;;
78057;SDS011;67265;52.514;13.292;2023-03-01T10:11:50;5.32;;;3.30;;
78057;SDS011;67265;52.514;13.292;2023-03-01T10:17:01;6.05;;;3.20;;
78057;SDS011;67265;52.514;13.292;2023-03-01T10:19:43;5.90;;;3.03;;
78057;SDS011;67265;52.514;13.292;2023-03-01T10:22:24;5.30;;;3.28;;
78057;SDS011;67265;52.514;13.292;2023-03-01T10:24:53;5.82;;;3.30;;
78057;SDS011;67265;52.514;13.292;2023-03-01T10:29:50;4.25;;;2.80;;
78057;SDS011;67265;52.514;13.292;2023-03-01T10:32:24;4.53;;;2.55;;
78057;SDS011;67265;52.514;13.292;2023-03-01T10:34:50;4.80;;;2.90;;
78057;SDS011;67265;52.514;13.292;2023-03-01T10:37:17;4.13;;;2.70;;
78057;SDS011;67265;52.514;13.292;2023-03-01T10:39:55;5.40;;;2.50;;
78057;SDS011;67265;52.514;13.292;2023-03-01T10:42:34;3.58;;;2.67;;
78057;SDS011;67265;52.514;13.292;2023-03-01T10:50:33;5.13;;;3.45;;
78057;SDS011;67265;52.514;13.292;2023-03-01T10:53:00;5.53;;;3.42;;
78057;SDS011;67265;52.514;13.292;2023-03-01T11:00:45;5.45;;;3.47;;
78057;SDS011;67265;52.514;13.292;2023-03-01T11:03:17;6.10;;;3.33;;
78057;SDS011;67265;52.514;13.292;2023-03-01T11:05:58;5.60;;;3.30;;
78057;SDS011;67265;52.514;13.292;2023-03-01T11:08:31;5.53;;;3.40;;
78057;SDS011;67265;52.514;13.292;2023-03-01T11:11:04;6.35;;;4.25;;
78057;SDS011;67265;52.514;13.292;2023-03-01T11:13:53;6.72;;;3.70;;
78057;SDS011;67265;52.514;13.292;2023-03-01T11:16:27;6.45;;;3.47;;
78057;SDS011;67265;52.514;13.292;2023-03-01T11:18:56;5.10;;;3.40;;
78057;SDS011;67265;52.514;13.292;2023-03-01T11:24:47;6.80;;;2.95;;
78057;SDS011;67265;52.514;13.292;2023-03-01T11:29:52;5.63;;;3.20;;
78057;SDS011;67265;52.514;13.292;2023-03-01T11:32:19;5.18;;;3.03;;
78057;SDS011;67265;52.514;13.292;2023-03-01T11:41:15;5.82;;;3.10;;
78057;SDS011;67265;52.514;13.292;2023-03-01T11:57:15;5.35;;;3.00;;
78057;SDS011;67265;52.514;13.292;2023-03-01T12:02:32;5.63;;;3.00;;
78057;SDS011;67265;52.514;13.292;2023-03-01T12:10:41;4.72;;;3.22;;
78057;SDS011;67265;52.514;13.292;2023-03-01T12:13:14;4.63;;;3.25;;
78057;SDS011;67265;52.514;13.292;2023-03-01T12:29:54;6.10;;;3.35;;
78057;SDS011;67265;52.514;13.292;2023-03-01T12:40:21;4.00;;;2.87;;
78057;SDS011;67265;52.514;13.292;2023-03-01T12:43:08;4.15;;;2.47;;
78057;SDS011;67265;52.514;13.292;2023-03-01T12:51:14;4.60;;;2.60;;
78057;SDS011;67265;52.514;13.292;2023-03-01T12:53:42;5.43;;;3.17;;
78057;SDS011;67265;52.514;13.292;2023-03-01T12:56:14;6.28;;;3.10;;
78057;SDS011;67265;52.514;13.292;2023-03-01T12:58:50;5.47;;;3.08;;
78057;SDS011;67265;52.514;13.292;2023-03-01T13:06:44;5.80;;;2.40;;
78057;SDS011;67265;52.514;13.292;2023-03-01T13:09:25;5.03;;;2.78;;
78057;SDS011;67265;52.514;13.292;2023-03-01T13:17:48;4.07;;;2.50;;
78057;SDS011;67265;52.514;13.292;2023-03-01T13:20:18;4.25;;;2.60;;
78057;SDS011;67265;52.514;13.292;2023-03-01T13:23:13;3.63;;;2.30;;
78057;SDS011;67265;52.514;13.292;2023-03-01T13:46:51;2.88;;;1.90;;
78057;SDS011;67265;52.514;13.292;2023-03-01T14:38:06;3.65;;;1.60;;
78057;SDS011;67265;52.514;13.292;2023-03-01T14:40:35;5.10;;;1.48;;
78057;SDS011;67265;52.514;13.292;2023-03-01T14:43:02;2.65;;;1.17;;
78057;SDS011;67265;52.514;13.292;2023-03-01T14:45:34;3.58;;;1.38;;
78057;SDS011;67265;52.514;13.292;2023-03-01T14:48:01;2.13;;;1.13;;
78057;SDS011;67265;52.514;13.292;2023-03-01T14:50:28;3.30;;;1.23;;
78057;SDS011;67265;52.514;13.292;2023-03-01T14:52:59;2.22;;;1.35;;
78057;SDS011;67265;52.514;13.292;2023-03-01T14:57:59;3.13;;;1.10;;
78057;SDS011;67265;52.514;13.292;2023-03-01T15:00:29;3.28;;;1.50;;
78057;SDS011;67265;52.514;13.292;2023-03-01T15:03:07;5.38;;;1.60;;
78057;SDS011;67265;52.514;13.292;2023-03-01T15:05:38;2.75;;;1.38;;
78057;SDS011;67265;52.514;13.292;2023-03-01T15:08:04;2.13;;;1.05;;
78057;SDS011;67265;52.514;13.292;2023-03-01T15:10:31;2.05;;;0.80;;
78057;SDS011;67265;52.514;13.292;2023-03-01T15:13:13;3.80;;;1.10;;
78057;SDS011;67265;52.514;13.292;2023-03-01T15:15:49;2.65;;;1.30;;
78057;SDS011;67265;52.514;13.292;2023-03-01T15:18:17;2.58;;;1.02;;
78057;SDS011;67265;52.514;13.292;2023-03-01T15:20:44;2.05;;;0.75;;
78057;SDS011;67265;52.514;13.292;2023-03-01T15:25:45;2.40;;;1.08;;
78057;SDS011;67265;52.514;13.292;2023-03-01T15:28:12;2.72;;;1.00;;
78057;SDS011;67265;52.514;13.292;2023-03-01T15:30:43;3.67;;;1.30;;
78057;SDS011;67265;52.514;13.292;2023-03-01T15:35:51;2.13;;;0.88;;
78057;SDS011;67265;52.514;13.292;2023-03-01T15:38:50;1.90;;;1.52;;
78057;SDS011;67265;52.514;13.292;2023-03-01T15:41:37;2.47;;;1.10;;
78057;SDS011;67265;52.514;13.292;2023-03-01T15:44:14;3.25;;;0.98;;
78057;SDS011;67265;52.514;13.292;2023-03-01T15:46:50;3.40;;;1.20;;
78057;SDS011;67265;52.514;13.292;2023-03-01T15:51:49;3.75;;;1.30;;
78057;SDS011;67265;52.514;13.292;2023-03-01T15:54:21;2.83;;;1.30;;
78057;SDS011;67265;52.514;13.292;2023-03-01T15:56:48;4.53;;;1.63;;
78057;SDS011;67265;52.514;13.292;2023-03-01T15:59:13;3.88;;;1.63;;
78057;SDS011;67265;52.514;13.292;2023-03-01T16:01:42;4.38;;;1.58;;
78057;SDS011;67265;52.514;13.292;2023-03-01T16:04:09;3.35;;;1.60;;
78057;SDS011;67265;52.514;13.292;2023-03-01T16:06:37;5.15;;;2.08;;
78057;SDS011;67265;52.514;13.292;2023-03-01T16:09:04;4.38;;;2.08;;
78057;SDS011;67265;52.514;13.292;2023-03-01T16:11:29;5.57;;;2.30;;
78057;SDS011;67265;52.514;13.292;2023-03-01T16:13:56;4.60;;;1.48;;
78057;SDS011;67265;52.514;13.292;2023-03-01T16:16:21;4.40;;;1.60;;
78057;SDS011;67265;52.514;13.292;2023-03-01T16:18:47;3.72;;;1.80;;
78057;SDS011;67265;52.514;13.292;2023-03-01T16:21:18;6.07;;;2.33;;
78057;SDS011;67265;52.514;13.292;2023-03-01T16:23:45;8.85;;;3.95;;
78057;SDS011;67265;52.514;13.292;2023-03-01T16:26:11;9.63;;;3.13;;
78057;SDS011;67265;52.514;13.292;2023-03-01T16:28:38;5.78;;;2.63;;
78057;SDS011;67265;52.514;13.292;2023-03-01T16:31:04;6.88;;;2.00;;
78057;SDS011;67265;52.514;13.292;2023-03-01T16:33:30;3.58;;;1.80;;
78057;SDS011;67265;52.514;13.292;2023-03-01T16:35:56;3.80;;;1.90;;
78057;SDS011;67265;52.514;13.292;2023-03-01T16:38:21;6.10;;;1.60;;
78057;SDS011;67265;52.514;13.292;2023-03-01T16:40:47;5.10;;;1.63;;
78057;SDS011;67265;52.514;13.292;2023-03-01T16:43:14;4.18;;;1.55;;
78057;SDS011;67265;52.514;13.292;2023-03-01T16:45:40;3.78;;;1.70;;
78057;SDS011;67265;52.514;13.292;2023-03-01T16:48:09;4.47;;;1.98;;
78057;SDS011;67265;52.514;13.292;2023-03-01T16:50:35;6.45;;;3.08;;
78057;SDS011;67265;52.514;13.292;2023-03-01T16:53:00;5.72;;;3.30;;
78057;SDS011;67265;52.514;13.292;2023-03-01T16:55:25;11.43;;;5.03;;
78057;SDS011;67265;52.514;13.292;2023-03-01T16:57:51;5.10;;;3.88;;
78057;SDS011;67265;52.514;13.292;2023-03-01T17:00:16;5.55;;;3.47;;
78057;SDS011;67265;52.514;13.292;2023-03-01T17:02:42;7.55;;;3.58;;
78057;SDS011;67265;52.514;13.292;2023-03-01T17:05:08;10.00;;;4.43;;
78057;SDS011;67265;52.514;13.292;2023-03-01T17:07:36;6.72;;;3.63;;
78057;SDS011;67265;52.514;13.292;2023-03-01T17:10:02;5.55;;;2.60;;
78057;SDS011;67265;52.514;13.292;2023-03-01T17:12:29;5.70;;;2.33;;
78057;SDS011;67265;52.514;13.292;2023-03-01T17:14:54;6.32;;;2.83;;
78057;SDS011;67265;52.514;13.292;2023-03-01T17:17:19;5.93;;;2.25;;
78057;SDS011;67265;52.514;13.292;2023-03-01T17:19:45;4.75;;;2.10;;
78057;SDS011;67265;52.514;13.292;2023-03-01T17:22:10;7.13;;;3.30;;
78057;SDS011;67265;52.514;13.292;2023-03-01T17:24:38;6.85;;;3.40;;
78057;SDS011;67265;52.514;13.292;2023-03-01T17:27:05;6.70;;;2.92;;
78057;SDS011;67265;52.514;13.292;2023-03-01T17:29:31;8.88;;;3.55;;
78057;SDS011;67265;52.514;13.292;2023-03-01T17:31:56;6.72;;;2.72;;
78057;SDS011;67265;52.514;13.292;2023-03-01T17:34:23;7.97;;;3.30;;
78057;SDS011;67265;52.514;13.292;2023-03-01T17:36:49;6.68;;;3.10;;
78057;SDS011;67265;52.514;13.292;2023-03-01T17:39:16;7.20;;;3.28;;
78057;SDS011;67265;52.514;13.292;2023-03-01T17:41:42;5.57;;;3.05;;
78057;SDS011;67265;52.514;13.292;2023-03-01T17:44:07;5.57;;;2.85;;